Airfield :
LOGIN :

Register | Disclaimer

   EN    FR    IT 

 










Legend :    VFR   Marginal VFR   IFR   Intensive IFR   Very Intensive IFR
Visi :
Ceiling :
>= 8 km
>= 3000ft
5 to 8 km
1000 to 3000 ft
1500m to 5 km
500 to 1000 ft
800 to 1500m
200 to 500 ft
< 800m
< 200 ft
Symbols :   Thunderstorms  Fog  Heavy snow  Heavy precipitations  Wind > 20 kt
SIGMETs :     Misc.  Thunderstorms  Icing  Turbulence  Mountain Waves  Volcanic Ashes






- Airport Elevation : 39 ft
- IATA code : TRS


LIPQ - Friuli Venezia Giulia Apt. Trieste

CURRENT METAR :
  • 140550Z 01003KT CAVOK 05/05 Q1009

EXPIRED METARs :
  • 140520Z 02003KT CAVOK 06/05 Q1008
  • 140450Z AUTO 36005KT 9999 SCT220/// 06/05 Q1008
  • 140420Z AUTO 36004KT 9999 FEW220/// 06/05 Q1008
  • 140350Z AUTO 34002KT 9999 SCT220/// 04/04 Q1008
  • 140320Z AUTO VRB02KT 9999 BKN210/// 05/05 Q1008

TAF TAF LIPQ
Valid from the 14 at 06:00 until the 15 at 06:00 UTC


140500Z 1406/1506 08010KT 8000 SCT030
BECMG 1500/1502 15010KT
BECMG 1421/1423 4000 RA BKN010



MET'MAP, your aeronautical weather chart ! - Copyright ORBIFLY December 2007 - Disclaimer

ORBIFLY MET'MAP TEAM :

Programming & Development : Alexandra Zaïnal
Concept & Development : Baudouin d'Aumeries
Co-Development & Prog : Marc-Olivier Méhu
Technical & hardware support : Manuel Goepfert

Contact : metmap@orbifly.com




SOURCES & CREDITS :

   NOAA